Map

Track Data

SID SEASON NUMBER BASIN SUBBASIN NAME ISO_TIME NATURE LAT LON WMO_WIND WMO_PRES WMO_AGENCY TRACK_TYPE DIST2LAND LANDFALL IFLAG USA_AGENCY USA_ATCF_ID USA_LAT USA_LON USA_RECORD USA_STATUS USA_WIND USA_PRES USA_SSHS USA_R34_NE USA_R34_SE USA_R34_SW USA_R34_NW USA_R50_NE USA_R50_SE USA_R50_SW USA_R50_NW USA_R64_NE USA_R64_SE USA_R64_SW USA_R64_NW USA_POCI USA_ROCI USA_RMW USA_EYE TOKYO_LAT TOKYO_LON TOKYO_GRADE TOKYO_WIND TOKYO_PRES TOKYO_R50_DIR TOKYO_R50_LONG TOKYO_R50_SHORT TOKYO_R30_DIR TOKYO_R30_LONG TOKYO_R30_SHORT TOKYO_LAND CMA_LAT CMA_LON CMA_CAT CMA_WIND CMA_PRES HKO_LAT HKO_LON HKO_CAT HKO_WIND HKO_PRES NEWDELHI_LAT NEWDELHI_LON NEWDELHI_GRADE NEWDELHI_WIND NEWDELHI_PRES NEWDELHI_CI NEWDELHI_DP NEWDELHI_POCI REUNION_LAT REUNION_LON REUNION_TYPE REUNION_WIND REUNION_PRES REUNION_TNUM REUNION_CI REUNION_RMW REUNION_R34_NE REUNION_R34_SE REUNION_R34_SW REUNION_R34_NW REUNION_R50_NE REUNION_R50_SE REUNION_R50_SW REUNION_R50_NW REUNION_R64_NE REUNION_R64_SE REUNION_R64_SW REUNION_R64_NW BOM_LAT BOM_LON BOM_TYPE BOM_WIND BOM_PRES BOM_TNUM BOM_CI BOM_RMW BOM_R34_NE BOM_R34_SE BOM_R34_SW BOM_R34_NW BOM_R50_NE BOM_R50_SE BOM_R50_SW BOM_R50_NW BOM_R64_NE BOM_R64_SE BOM_R64_SW BOM_R64_NW BOM_ROCI BOM_POCI BOM_EYE BOM_POS_METHOD BOM_PRES_METHOD NADI_LAT NADI_LON NADI_CAT NADI_WIND NADI_PRES WELLINGTON_LAT WELLINGTON_LON WELLINGTON_WIND WELLINGTON_PRES DS824_LAT DS824_LON DS824_STAGE DS824_WIND DS824_PRES TD9636_LAT TD9636_LON TD9636_STAGE TD9636_WIND TD9636_PRES TD9635_LAT TD9635_LON TD9635_WIND TD9635_PRES TD9635_ROCI NEUMANN_LAT NEUMANN_LON NEUMANN_CLASS NEUMANN_WIND NEUMANN_PRES MLC_LAT MLC_LON MLC_CLASS MLC_WIND MLC_PRES USA_GUST BOM_GUST BOM_GUST_PER REUNION_GUST REUNION_GUST_PER USA_SEAHGT USA_SEARAD_NE USA_SEARAD_SE USA_SEARAD_SW USA_SEARAD_NW STORM_SPEED STORM_DIR
2021095S10123 2021 21 SI WA SEROJA 2021-04-04 12:00:00 NR -10.4000 123.200 PROVISIONAL 32 32 O_____________ tcvightals SI262021 -10.4000 123.200 35 999 0 30 35 35 30 1004 205 14 2 235
2021095S10123 2021 21 SI WA SEROJA 2021-04-04 15:00:00 NR -10.4600 123.113 PROVISIONAL 45 45 P_____________ SI262021 -10.4600 123.113 40 996 0 55 57 62 57 1004 207 19 2 243
2021095S10123 2021 21 SI WA SEROJA 2021-04-04 18:00:00 NR -10.5000 123.000 PROVISIONAL 55 55 O_____________ tcvightals SI262021 -10.5000 123.000 45 993 0 80 80 90 85 1004 210 25 3 257
2021095S10123 2021 21 SI WA SEROJA 2021-04-04 21:00:00 NR -10.5200 122.837 PROVISIONAL 77 77 P_____________ SI262021 -10.5200 122.837 45 992 0 75 82 85 87 1004 215 25 4 256
2021095S10123 2021 21 SI WA SEROJA 2021-04-05 00:00:00 NR -10.6000 122.600 PROVISIONAL 100 100 O_____________ tcvightals SI262021 -10.6000 122.600 45 992 0 70 85 80 90 1004 220 25 7 240
2021095S10123 2021 21 SI WA SEROJA 2021-04-05 03:00:00 NR -10.8501 122.250 PROVISIONAL 142 142 P_____________ SI262021 -10.8501 122.250 48 991 0 72 92 90 92 1004 215 25 9 234
2021095S10123 2021 21 SI WA SEROJA 2021-04-05 06:00:00 NR -11.1000 121.900 PROVISIONAL 165 156 O_____________ tcvightals SI262021 -11.1000 121.900 51 990 0 75 100 100 95 1004 210 25 6 238
2021095S10123 2021 21 SI WA SEROJA 2021-04-05 09:00:00 NR -11.1798 121.707 PROVISIONAL 156 142 P_____________ SI262021 -11.1798 121.707 51 992 0 75 97 97 90 1005 207 25 4 256
2021095S10123 2021 21 SI WA SEROJA 2021-04-05 12:00:00 NR -11.2000 121.500 PROVISIONAL 142 120 O_____________ tcvightals SI262021 -11.2000 121.500 51 994 0 75 95 95 85 1007 205 25 6 264
2021095S10123 2021 21 SI WA SEROJA 2021-04-05 15:00:00 NR -11.2426 121.115 PROVISIONAL 120 114 P_____________ SI262021 -11.2426 121.115 51 994 0 80 92 92 85 1007 212 25 8 263
2021095S10123 2021 21 SI WA SEROJA 2021-04-05 18:00:00 NR -11.3000 120.700 PROVISIONAL 114 112 O_____________ tcvightals SI262021 -11.3000 120.700 51 994 0 85 90 90 85 1007 220 25 7 256
2021095S10123 2021 21 SI WA SEROJA 2021-04-05 21:00:00 NR -11.4072 120.430 PROVISIONAL 123 123 P_____________ SI262021 -11.4072 120.430 52 992 0 85 90 90 85 1007 222 25 6 251
2021095S10123 2021 21 SI WA SEROJA 2021-04-06 00:00:00 NR -11.5000 120.100 PROVISIONAL 141 141 O_____________ tcvightals SI262021 -11.5000 120.100 54 991 0 85 90 90 85 1007 225 25 10 264
2021095S10123 2021 21 SI WA SEROJA 2021-04-06 03:00:00 NR -11.4996 119.454 PROVISIONAL 164 164 P_____________ SI262021 -11.4996 119.454 52 992 0 82 77 87 87 1006 217 25 12 270
2021095S10123 2021 21 SI WA SEROJA 2021-04-06 06:00:00 NR -11.5000 118.900 PROVISIONAL 198 198 O_____________ tcvightals SI262021 -11.5000 118.900 51 994 0 80 65 85 90 1006 210 25 6 264
2021095S10123 2021 21 SI WA SEROJA 2021-04-06 09:00:00 NR -11.5616 118.809 PROVISIONAL 212 208 P_____________ SI262021 -11.5616 118.809 51 993 0 2 174
2021095S10123 2021 21 SI WA SEROJA 2021-04-06 12:00:00 NR -11.7118 118.911 PROVISIONAL 219 219 I_____________ tcvightals SI262021 -11.7118 118.911 51 993 0 4 151
2021095S10123 2021 21 SI WA SEROJA 2021-04-06 15:00:00 NR -11.9467 119.031 PROVISIONAL 231 231 P_____________ SI262021 -11.9467 119.031 51 992 0 6 171
2021095S10123 2021 21 SI WA SEROJA 2021-04-06 18:00:00 NR -12.3000 119.000 PROVISIONAL 269 269 O_____________ tcvightals SI262021 -12.3000 119.000 51 992 0 90 70 80 90 1006 210 25 9 207
2021095S10123 2021 21 SI WA SEROJA 2021-04-06 21:00:00 NR -12.7767 118.597 PROVISIONAL 339 339 P_____________ SI262021 -12.7767 118.597 48 994 0 77 60 82 85 1006 165 25 14 224
2021095S10123 2021 21 SI WA SEROJA 2021-04-07 00:00:00 NR -13.3000 118.000 PROVISIONAL 420 420 O_____________ tcvightals SI262021 -13.3000 118.000 45 997 0 65 50 85 80 1006 120 25 15 230
2021095S10123 2021 21 SI WA SEROJA 2021-04-07 03:00:00 NR -13.7726 117.393 PROVISIONAL 495 495 P_____________ SI262021 -13.7726 117.393 45 996 0 62 55 80 75 1005 147 25 15 232
2021095S10123 2021 21 SI WA SEROJA 2021-04-07 06:00:00 NR -14.2000 116.800 PROVISIONAL 562 562 O_____________ tcvightals SI262021 -14.2000 116.800 45 996 0 60 60 75 70 1005 175 25 13 231
2021095S10123 2021 21 SI WA SEROJA 2021-04-07 09:00:00 NR -14.5644 116.372 PROVISIONAL 619 619 P_____________ SI262021 -14.5644 116.372 45 996 0 57 70 75 75 1005 177 25 11 231
2021095S10123 2021 21 SI WA SEROJA 2021-04-07 12:00:00 NR -14.9000 115.900 PROVISIONAL 643 613 O_____________ tcvightals SI262021 -14.9000 115.900 45 997 0 55 80 75 80 1006 180 25 14 239
2021095S10123 2021 21 SI WA SEROJA 2021-04-07 15:00:00 NR -15.2807 115.128 PROVISIONAL 616 605 P_____________ SI262021 -15.2807 115.128 45 998 0 37 50 65 70 1006 180 25 16 244
2021095S10123 2021 21 SI WA SEROJA 2021-04-07 18:00:00 NR -15.6000 114.400 PROVISIONAL 609 604 O_____________ tcvightals SI262021 -15.6000 114.400 45 999 0 20 20 55 60 1006 180 25 10 245
2021095S10123 2021 21 SI WA SEROJA 2021-04-07 21:00:00 NR -15.7187 114.144 PROVISIONAL 613 603 P_____________ SI262021 -15.7187 114.144 49 995 0 40 42 75 57 1005 192 19 7 243
2021095S10123 2021 21 SI WA SEROJA 2021-04-08 00:00:00 NR -15.9000 113.800 PROVISIONAL 608 604 O_____________ tcvightals SI262021 -15.9000 113.800 54 992 0 60 65 95 55 1004 205 14 15 243
2021095S10123 2021 21 SI WA SEROJA 2021-04-08 03:00:00 NR -16.4222 112.730 PROVISIONAL 623 598 P_____________ SI262021 -16.4222 112.730 54 989 0 67 87 102 52 1002 200 24 23 241
2021095S10123 2021 21 SI WA SEROJA 2021-04-08 06:00:00 NR -17.0000 111.700 PROVISIONAL 598 572 O_____________ tcvightals SI262021 -17.0000 111.700 54 987 0 75 110 110 50 1001 195 35 16 233
2021095S10123 2021 21 SI WA SEROJA 2021-04-08 09:00:00 NR -17.3790 111.421 PROVISIONAL 572 542 P_____________ SI262021 -17.3790 111.421 54 987 0 87 105 102 60 1002 195 35 8 202
2021095S10123 2021 21 SI WA SEROJA 2021-04-08 12:00:00 NR -17.7000 111.400 PROVISIONAL 542 519 O_____________ tcvightals SI262021 -17.7000 111.400 54 988 0 100 100 95 70 1003 195 35 7 194
2021095S10123 2021 21 SI WA SEROJA 2021-04-08 15:00:00 NR -18.0573 111.245 PROVISIONAL 515 501 P_____________ SI262021 -18.0573 111.245 49 989 0 87 87 1002 177 40 8 208
2021095S10123 2021 21 SI WA SEROJA 2021-04-08 18:00:00 NR -18.4000 111.000 PROVISIONAL 501 496 O_____________ tcvightals SI262021 -18.4000 111.000 45 991 0 75 75 1001 160 45 9 225
2021095S10123 2021 21 SI WA SEROJA 2021-04-08 21:00:00 NR -18.7002 110.573 PROVISIONAL 503 503 P_____________ SI262021 -18.7002 110.573 45 991 0 77 87 1001 160 45 10 235
2021095S10123 2021 21 SI WA SEROJA 2021-04-09 00:00:00 NR -19.0000 110.100 PROVISIONAL 519 519 O_____________ tcvightals SI262021 -19.0000 110.100 45 991 0 80 100 100 50 1001 160 45 10 231
2021095S10123 2021 21 SI WA SEROJA 2021-04-09 03:00:00 NR -19.3574 109.720 PROVISIONAL 527 527 P_____________ SI262021 -19.3574 109.720 48 989 0 82 95 97 97 1000 160 45 10 223
2021095S10123 2021 21 SI WA SEROJA 2021-04-09 06:00:00 NR -19.7000 109.400 PROVISIONAL 537 532 O_____________ tcvightals SI262021 -19.7000 109.400 51 987 0 85 90 95 145 1000 160 45 9 221
2021095S10123 2021 21 SI WA SEROJA 2021-04-09 09:00:00 NR -19.9949 109.127 PROVISIONAL 549 543 P_____________ SI262021 -19.9949 109.127 52 985 0 142 87 92 162 1000 157 35 7 223
2021095S10123 2021 21 SI WA SEROJA 2021-04-09 12:00:00 NR -20.2000 108.900 PROVISIONAL 555 555 O_____________ tcvightals SI262021 -20.2000 108.900 54 983 0 200 85 90 180 1001 155 25 5 237
2021095S10123 2021 21 SI WA SEROJA 2021-04-09 15:00:00 NR -20.2499 108.715 PROVISIONAL 573 568 P_____________ SI262021 -20.2499 108.715 57 982 0 157 105 97 140 1001 150 22 4 255
2021095S10123 2021 21 SI WA SEROJA 2021-04-09 18:00:00 NR -20.3000 108.500 PROVISIONAL 586 586 O_____________ tcvightals SI262021 -20.3000 108.500 60 982 0 115 126 105 100 1002 145 20 6 242
2021095S10123 2021 21 SI WA SEROJA 2021-04-09 21:00:00 NR -20.5427 108.128 PROVISIONAL 615 610 P_____________ SI262021 -20.5427 108.128 60 982 0 110 113 100 87 1002 140 20 8 233
2021095S10123 2021 21 SI WA SEROJA 2021-04-10 00:00:00 NR -20.8000 107.800 PROVISIONAL 631 631 O_____________ tcvightals SI262021 -20.8000 107.800 60 983 0 105 100 95 75 1002 135 20 6 233
2021095S10123 2021 21 SI WA SEROJA 2021-04-10 03:00:00 NR -20.8996 107.623 PROVISIONAL 647 634 P_____________ SI262021 -20.8996 107.623 60 982 0 95 85 82 70 1001 130 20 2 207
2021095S10123 2021 21 SI WA SEROJA 2021-04-10 06:00:00 NR -21.0000 107.700 PROVISIONAL 634 588 O_____________ tcvightals SI262021 -21.0000 107.700 60 982 0 85 70 70 65 1001 126 20 6 122
2021095S10123 2021 21 SI WA SEROJA 2021-04-10 09:00:00 NR -21.1979 108.132 PROVISIONAL 588 519 P_____________ SI262021 -21.1979 108.132 60 981 0 95 77 77 72 1001 126 20 11 118
2021095S10123 2021 21 SI WA SEROJA 2021-04-10 12:00:00 NR -21.5000 108.700 PROVISIONAL 519 471 O_____________ tcvightals SI262021 -21.5000 108.700 60 981 0 105 85 85 80 1002 126 20 11 126
2021095S10123 2021 21 SI WA SEROJA 2021-04-10 15:00:00 NR -21.8522 109.101 PROVISIONAL 469 421 P_____________ SI262021 -21.8522 109.101 62 979 0 107 90 80 90 1002 126 20 12 141
2021095S10123 2021 21 SI WA SEROJA 2021-04-10 18:00:00 NR -22.4000 109.500 PROVISIONAL 421 375 O_____________ tcvightals SI262021 -22.4000 109.500 64 978 1 110 95 75 100 1002 126 20 16 150
2021095S10123 2021 21 SI WA SEROJA 2021-04-10 21:00:00 NR -23.2246 109.948 PROVISIONAL 375 295 P_____________ SI262021 -23.2246 109.948 64 978 1 110 95 67 95 1002 126 22 20 153
2021095S10123 2021 21 SI WA SEROJA 2021-04-11 00:00:00 NR -24.2000 110.500 PROVISIONAL 294 230 O_____________ tcvightals SI262021 -24.2000 110.500 64 979 1 110 95 60 90 1002 126 25 23 149
2021095S10123 2021 21 SI WA SEROJA 2021-04-11 03:00:00 NR -25.1635 111.202 PROVISIONAL 227 130 P_____________ SI262021 -25.1635 111.202 67 975 1 118 102 57 90 1000 126 15 23 144
2021095S10123 2021 21 SI WA SEROJA 2021-04-11 06:00:00 NR -26.1000 112.000 PROVISIONAL 129 O_____________ tcvightals SI262021 -26.1000 112.000 70 972 1 126 110 55 90 999 126 6 24 143

About IBTrACS Database

This database is a web-friendly format of International Best Track Archive for Climate Stewardship (IBTrACS), a global best track data archive curated by NOAA dating back to 1842.

Updated: 2021-05-04